Elon, NC

18:25 EDT le 20 août 2014 (GMT -0400)
Burlington-Alamance Regional | Change Station
CLOSE
Current Station
Aéroport
Location: Burlington,
Altitude: 617 ft
Stations météo à proximité

Alt. 617 ft 36.05 °N, 79.47 °W | Updated 31 minutes ago

Partly Cloudy
Partiellement nuageux
87 ° F
Paraît 91 ° F
N
5
Vent Variable Vent de Sud

Aujourd'hui
Haut(e) -- | Bas -- ° F
--% Risque de précip.
Hier
Haut(e) -- | Bas -- ° F
Precip. -- pouce
6:40 AM 8:01 PM
Lune descendante, 19% visible
Pression 29.94 pouce
Visibilité 10.0 Miles terrestres
Nuages Peu 5500 ft
indice de chaleur 91 ° F
Point de rosée 69 ° F
Humidité 55%
Précipitations 0.00 pouce
Profondeur de la couche neigeuse Non disponible.
UV 2 sur 12
Pollen 8.30 sur 12
Ozone Bon
PM2.5 Bon
Flu Activity Non disponible.
METAR KBUY 202154Z AUTO 17004KT 10SM FEW055 31/21 A2996 RMK AO2 SLP137 T03060206 $

More Conditions Fewer Conditions

Pression 29.94 pouce
Visibilité 10.0 Miles terrestres
Nuages Peu 5500 ft
indice de chaleur 91 ° F
Point de rosée 69 ° F
Humidité 55%
Précipitations 0.00 pouce
Profondeur de la couche neigeuse Non disponible.
UV 2 sur 12
Pollen 8.30 sur 12
Ozone Bon
PM2.5 Bon
Flu Activity Non disponible.
METAR KBUY 202154Z AUTO 17004KT 10SM FEW055 31/21 A2996 RMK AO2 SLP137 T03060206 $

More Conditions Fewer Conditions

10-Day Weather Forecast

Almanac

Astronomie

Aug. 20, 2014 Lever Coucher
Temps réel 06:40 EDT 20:01 EDT
Crépuscule civil 06:13 EDT 20:28 EDT
Crépuscule nautique 05:41 EDT 21:00 EDT
Crépuscule astronomique 05:07 EDT 21:34 EDT
Lune 02:22 EDT 16:42 EDT
Durée de lumière visible 14h 15m
Longueur du jour
13h 21m
Tomorrow will be 2m 5s shorter.
Lune descendante, 19% of the Moon is Illuminated
Aujourd'hui
Lune descendante
août 25
Nouveau
Sep 2
Premier quartier
Sep 8
Pleine lune
Sep 15
Dernier quartier

Extrêmes aujourd'hui

State Highs State Lows

Community

WunderPhotos

Upload Photos

1,745,779 Photos téléchargées !

Nearby

Qualité de l'air

  Qualité de l'air Indice de la qualité de l'air Polluant
Hier Bon
OZONE
Hier Bon
PM2.5
Actuel Bon
PM2.5
Actuel Bon
OZONE
mercredi Moyen
OZONE
mercredi Moyen
PM2.5
jeudi Moyen
OZONE
jeudi Moyen
PM2.5
vendredi Moyen
PM2.5
vendredi Moyen
OZONE
samedi Bon
PM2.5
samedi Bon
OZONE

Épaisseur de neige

Station Depth Altitude
Pas de nouvelles chutes de neige

Activité sismique

Ville Distance Mag. Time & Date
No recent earthquake activity has been reported nearby.
Minimum magnitude displayed is 2.5.

Températures des eaux côtières

Lieu Température
Aucun rapport de station

Stations météo à proximité